Main page
METAR-TAF:

METAR-TAF

Airports :

Auckland Airport

Auckland, New Zealand

latitude: 37-01S, longitude: 174-48E, elevation: 7 m

Current weather observation

The report was made 23 minutes ago, at 23:00 UTC
Wind 19 kt from the South/Southwest
Temperature 22°C
Humidity 69%
Pressure 1015 hPa
Visibility 10 km or more

METAR: NZAA 212300Z AUTO 21019KT 9999 FEW027/// BKN038/// 22/16 Q1015 NOSIG

Time: 12:23 (23:23 UTC)

Forecast

The report was made 6 hours and 21 minutes ago, at 17:02 UTC
Forecast valid from 21 at 18 UTC to 22 at 18 UTC
Wind 15 kt from the Southwest with gusts up to 25 kt
Visibility 10 km or more
Scattered clouds at a height of 2000 ft
Becoming
from 22 at 06 UTC to 22 at 08 UTC
Wind 12 kt from the Southwest

TAF: NZAA 211702Z 2118/2218 22015G25KT 9999 SCT020 BECMG 2206/2208 22012KT

Weather observations and forecasts of more than 4000 airports (METAR and TAF reports).

The available stations are represented by yellow and red dots on the map.

Hover mouse over dot to see the name of the station.

Then click to see weather observations and forecasts.

To change the map : click on the green buttons with a black cross to zoom in, on the green button with a dash to zoom out, or on the green arrows for adjacent maps.


METAR-TAF: